createdAt,value
2022-09-23T00:01:19.216Z,11.60
2022-09-23T00:06:25.425Z,10.50
2022-09-23T00:11:30.308Z,11.40
2022-09-23T00:16:35.818Z,13.62
2022-09-23T00:21:40.847Z,13.18
2022-09-23T00:26:44.607Z,11.05
2022-09-23T00:31:48.319Z,12.77
2022-09-23T00:36:53.305Z,13.73
2022-09-23T00:41:57.139Z,10.88
2022-09-23T00:47:00.957Z,13.40
2022-09-23T00:52:12.331Z,12.63
2022-09-23T00:57:17.960Z,17.55
2022-09-23T01:02:22.227Z,9.98
2022-09-23T01:07:27.353Z,13.98
2022-09-23T01:12:51.127Z,12.70
2022-09-23T01:18:05.308Z,11.23
2022-09-23T01:23:28.774Z,12.37
2022-09-23T01:28:54.286Z,12.60
2022-09-23T01:34:03.239Z,11.52
2022-09-23T01:39:14.154Z,16.73
2022-09-23T01:44:22.887Z,15.70
2022-09-23T01:49:33.629Z,11.25
2022-09-23T01:54:40.924Z,10.38
2022-09-23T01:59:48.964Z,9.90
2022-09-23T02:05:01.792Z,13.35
2022-09-23T02:10:12.370Z,9.55
2022-09-23T02:15:19.460Z,9.95
2022-09-23T02:20:29.147Z,11.23
2022-09-23T02:25:41.309Z,9.68
2022-09-23T02:30:49.994Z,9.52
2022-09-23T02:36:01.149Z,9.30
2022-09-23T02:41:10.894Z,9.25
2022-09-23T02:46:14.688Z,9.65
2022-09-23T02:51:20.220Z,9.48
2022-09-23T02:56:23.920Z,10.80
2022-09-23T03:01:40.088Z,15.93
2022-09-23T03:06:57.723Z,11.27
2022-09-23T03:12:13.250Z,9.53
2022-09-23T03:17:26.774Z,15.55
2022-09-23T03:22:36.387Z,16.08
2022-09-23T03:27:42.469Z,13.77
2022-09-23T03:32:47.821Z,15.82
2022-09-23T03:37:58.255Z,20.17
2022-09-23T03:43:03.461Z,14.40
2022-09-23T03:48:07.867Z,12.82
2022-09-23T03:53:14.211Z,17.67
2022-09-23T03:58:17.899Z,19.27
2022-09-23T04:03:22.351Z,13.10
2022-09-23T04:08:27.572Z,13.57
2022-09-23T04:13:31.573Z,17.05
2022-09-23T04:18:35.227Z,15.85
2022-09-23T04:23:40.315Z,11.40
2022-09-23T04:28:43.983Z,16.95
2022-09-23T04:33:47.656Z,16.40
2022-09-23T04:38:52.893Z,19.20
2022-09-23T04:43:57.462Z,18.87
2022-09-23T04:49:01.157Z,15.23
2022-09-23T04:54:06.283Z,16.92
2022-09-23T04:59:10.107Z,15.10
2022-09-23T05:04:14.854Z,15.20
2022-09-23T05:09:19.907Z,17.52
2022-09-23T05:14:23.679Z,16.77
2022-09-23T05:19:27.380Z,14.63
2022-09-23T05:24:32.375Z,14.27
2022-09-23T05:29:36.160Z,14.52
2022-09-23T05:34:40.136Z,16.27
2022-09-23T05:39:45.178Z,15.05
2022-09-23T05:44:48.877Z,16.98
2022-09-23T05:50:00.677Z,19.90
2022-09-23T05:55:07.226Z,13.25
2022-09-23T06:00:13.483Z,18.98
2022-09-23T06:05:17.295Z,12.98
2022-09-23T06:10:22.308Z,16.37
2022-09-23T06:15:26.314Z,12.23
2022-09-23T06:20:30.005Z,16.05
2022-09-23T06:25:36.168Z,12.68
2022-09-23T06:30:40.575Z,12.15
2022-09-23T06:35:54.332Z,12.60
2022-09-23T06:41:03.122Z,15.65
2022-09-23T06:46:08.416Z,23.60
2022-09-23T06:51:19.131Z,15.82
2022-09-23T06:56:24.815Z,14.73
2022-09-23T07:01:28.612Z,13.32
2022-09-23T07:06:32.398Z,16.35
2022-09-23T07:11:37.665Z,10.65
2022-09-23T07:16:41.768Z,10.15
2022-09-23T07:21:45.588Z,11.27
2022-09-23T07:26:50.953Z,15.23
2022-09-23T07:32:00.700Z,11.18
2022-09-23T07:37:10.702Z,11.27
2022-09-23T07:42:15.850Z,10.95
2022-09-23T07:47:20.124Z,11.70
2022-09-23T07:52:24.248Z,15.05
2022-09-23T07:57:29.273Z,14.85
2022-09-23T08:02:32.994Z,11.52
2022-09-23T08:07:37.029Z,9.73
2022-09-23T08:12:42.139Z,9.75
2022-09-23T08:17:46.306Z,9.90
2022-09-23T08:22:51.800Z,12.57
2022-09-23T08:27:57.108Z,13.40
2022-09-23T08:33:00.818Z,14.68
2022-09-23T08:38:04.759Z,12.77
2022-09-23T08:43:18.072Z,13.52
2022-09-23T08:48:30.579Z,13.00
2022-09-23T08:53:36.185Z,10.07
2022-09-23T08:58:51.931Z,14.10
2022-09-23T09:03:57.853Z,10.15
2022-09-23T09:09:03.755Z,9.55
2022-09-23T09:14:22.435Z,11.55
2022-09-23T09:19:55.355Z,10.38
2022-09-23T09:25:05.506Z,6.85
2022-09-23T09:30:13.484Z,6.70
2022-09-23T09:35:28.089Z,11.55
2022-09-23T09:40:32.056Z,9.73
2022-09-23T09:45:57.573Z,10.68
2022-09-23T09:51:19.771Z,10.13
2022-09-23T09:56:31.187Z,9.88
2022-09-23T10:01:36.596Z,13.43
2022-09-23T10:06:41.840Z,7.53
2022-09-23T10:12:04.601Z,7.22
2022-09-23T10:17:18.844Z,7.28
2022-09-23T10:22:29.857Z,7.95
2022-09-23T10:27:36.485Z,9.07
2022-09-23T10:32:45.870Z,7.30
2022-09-23T10:37:52.651Z,8.43
2022-09-23T10:43:21.781Z,9.00
2022-09-23T10:48:41.955Z,10.43
2022-09-23T10:53:54.643Z,7.53
2022-09-23T10:59:09.673Z,8.38
2022-09-23T11:04:29.446Z,10.40
2022-09-23T11:09:41.223Z,6.25
2022-09-23T11:15:02.409Z,10.13
2022-09-23T11:20:31.688Z,6.65
2022-09-23T11:25:48.229Z,5.55
2022-09-23T11:31:02.013Z,8.98
2022-09-23T11:36:10.120Z,5.35
2022-09-23T11:41:19.473Z,11.30
2022-09-23T11:46:34.083Z,8.10
2022-09-23T11:51:45.937Z,9.40
2022-09-23T11:56:54.441Z,10.43
2022-09-23T12:02:15.282Z,8.30
2022-09-23T12:07:27.820Z,12.30
2022-09-23T12:12:40.450Z,7.68
2022-09-23T12:17:59.308Z,8.75
2022-09-23T12:23:19.071Z,4.57
2022-09-23T12:28:26.951Z,13.00
2022-09-23T12:33:33.167Z,9.80
2022-09-23T12:38:41.233Z,4.95
2022-09-23T12:43:54.947Z,7.18
2022-09-23T12:49:03.719Z,7.78
2022-09-23T12:54:24.324Z,7.07
2022-09-23T12:59:31.172Z,7.87
2022-09-23T13:05:03.602Z,11.93
2022-09-23T13:10:16.825Z,11.43
2022-09-23T13:15:29.759Z,11.98
2022-09-23T13:20:38.383Z,16.62
2022-09-23T13:25:44.599Z,9.68
2022-09-23T13:30:52.060Z,8.32
2022-09-23T13:36:01.070Z,10.87
2022-09-23T13:41:12.420Z,14.95
2022-09-23T13:46:19.133Z,12.98
2022-09-23T13:51:25.846Z,13.40
2022-09-23T13:56:32.751Z,15.02
2022-09-23T14:01:37.025Z,13.68
2022-09-23T14:06:42.437Z,8.75
2022-09-23T14:11:47.699Z,7.65
2022-09-23T14:16:52.865Z,8.88
2022-09-23T14:21:57.523Z,10.20
2022-09-23T14:27:14.353Z,9.85
2022-09-23T14:32:21.736Z,9.25
2022-09-23T14:37:47.643Z,13.20
2022-09-23T14:42:58.138Z,10.30
2022-09-23T14:48:09.769Z,7.85
2022-09-23T14:53:36.772Z,13.57
2022-09-23T14:58:51.966Z,7.60
2022-09-23T15:03:57.380Z,10.00
2022-09-23T15:09:01.151Z,8.93
2022-09-23T15:14:33.241Z,17.75
2022-09-23T15:19:31.548Z,13.18
2022-09-23T15:24:38.918Z,11.07
2022-09-23T15:29:43.993Z,20.35
2022-09-23T15:34:50.605Z,12.10
2022-09-23T15:39:54.264Z,9.73
2022-09-23T15:45:00.359Z,17.02
2022-09-23T15:50:07.201Z,15.18
2022-09-23T15:55:16.510Z,11.38
2022-09-23T16:00:21.940Z,16.15
2022-09-23T16:05:33.049Z,11.38
2022-09-23T16:10:37.168Z,12.48
2022-09-23T16:15:42.836Z,12.45
2022-09-23T16:20:47.798Z,12.68
2022-09-23T16:25:51.621Z,11.07
2022-09-23T16:30:56.712Z,13.57
2022-09-23T16:36:01.853Z,12.40
2022-09-23T16:41:06.964Z,16.15
2022-09-23T16:46:14.324Z,36.03
2022-09-23T16:51:20.543Z,23.50
2022-09-23T16:56:28.854Z,15.23
2022-09-23T17:01:52.334Z,14.65
2022-09-23T17:06:56.680Z,10.27
2022-09-23T17:12:10.524Z,12.68
2022-09-23T17:17:15.682Z,15.10
2022-09-23T17:22:19.384Z,20.65
2022-09-23T17:27:24.953Z,16.30
2022-09-23T17:32:30.179Z,18.73
2022-09-23T17:37:33.962Z,15.52
2022-09-23T17:42:42.102Z,19.52
2022-09-23T17:47:54.796Z,20.02
2022-09-23T17:53:00.086Z,18.30
2022-09-23T17:58:03.858Z,12.80
2022-09-23T18:03:08.892Z,15.65
2022-09-23T18:08:12.768Z,12.23
2022-09-23T18:13:16.569Z,12.13
2022-09-23T18:18:21.608Z,13.43
2022-09-23T18:23:26.193Z,12.63
2022-09-23T18:28:34.085Z,14.55
2022-09-23T18:33:39.968Z,12.32
2022-09-23T18:38:43.794Z,11.23
2022-09-23T18:43:48.834Z,12.18
2022-09-23T18:49:12.240Z,13.50
2022-09-23T18:54:16.250Z,15.20
2022-09-23T18:59:23.854Z,19.62
2022-09-23T19:04:29.010Z,19.23
2022-09-23T19:09:32.786Z,24.45
2022-09-23T19:14:36.432Z,19.77
2022-09-23T19:19:42.045Z,22.83
2022-09-23T19:24:45.796Z,20.67
2022-09-23T19:29:50.338Z,21.45
2022-09-23T19:34:55.355Z,21.12
2022-09-23T19:39:59.069Z,26.85
2022-09-23T19:45:02.977Z,26.60
2022-09-23T19:50:09.310Z,26.48
2022-09-23T19:55:13.473Z,23.98
2022-09-23T20:00:17.263Z,22.27
2022-09-23T20:05:23.274Z,23.20
2022-09-23T20:10:27.222Z,21.30
2022-09-23T20:15:30.988Z,22.60
2022-09-23T20:20:36.070Z,22.17
2022-09-23T20:25:57.464Z,19.83
2022-09-23T20:31:01.307Z,25.45
2022-09-23T20:36:07.875Z,23.42
2022-09-23T20:41:12.029Z,23.20
2022-09-23T20:46:16.383Z,22.20
2022-09-23T20:51:21.491Z,19.58
2022-09-23T20:56:25.298Z,22.50
2022-09-23T21:01:29.639Z,21.15
2022-09-23T21:06:35.655Z,19.30
2022-09-23T21:11:39.433Z,21.80
2022-09-23T21:16:43.157Z,21.27
2022-09-23T21:21:48.358Z,21.35
2022-09-23T21:26:52.034Z,22.52
2022-09-23T21:31:55.774Z,22.75
2022-09-23T21:37:00.960Z,25.50
2022-09-23T21:42:05.932Z,20.77
2022-09-23T21:47:09.687Z,21.20
2022-09-23T21:52:14.780Z,20.88
2022-09-23T21:57:18.475Z,27.87
2022-09-23T22:02:23.384Z,22.60
2022-09-23T22:07:28.533Z,20.98
2022-09-23T22:12:32.556Z,24.52
2022-09-23T22:17:36.236Z,25.37
2022-09-23T22:22:41.237Z,24.52
2022-09-23T22:27:58.896Z,28.15
2022-09-23T22:33:09.067Z,29.63
2022-09-23T22:38:14.086Z,28.23
2022-09-23T22:43:18.591Z,27.92
2022-09-23T22:48:22.222Z,27.35
2022-09-23T22:53:29.114Z,27.77
2022-09-23T22:58:33.062Z,30.05
2022-09-23T23:03:37.205Z,29.30
2022-09-23T23:08:42.280Z,30.30
2022-09-23T23:13:46.113Z,30.67
2022-09-23T23:18:49.868Z,29.17
2022-09-23T23:23:54.872Z,35.15
2022-09-23T23:28:59.077Z,28.92
2022-09-23T23:34:02.735Z,32.67
2022-09-23T23:39:08.394Z,29.55
2022-09-23T23:44:13.318Z,28.85
2022-09-23T23:49:17.003Z,29.00
2022-09-23T23:54:22.067Z,27.73
2022-09-23T23:59:28.241Z,23.80
